KAAF

Apalachicola Regional-Cleve Randolph Field Airport

Apalachicola, Florida, USA
METAR KAAF 191753Z AUTO 20010KT 10SM CLR 33/24 A2997 RMK AO2 SLP149 T03280239 10333 20244 58003
Observed Flight Rules
Sep-19 @ 17:53 UTC (57 minutes ago) Visual Flight Rules
Wind Visibility Clouds
200° at 10 knots 10 miles
  • Clear skies
Temperatures Readings
Current 33°C / 91°F
Dewpoint 24°C / 75°F
Humidity 59%
Altimeter 29.97" Hg
Pressure 1014.9 hPa
Elevation 5
METAR KAAF 191753Z AUTO 20010KT 10SM CLR 33/24 A2997 RMK AO2 SLP149 T03280239 10333 20244 58003
Observed Flight Rules
Sep-19 @ 17:53 UTC
(57 minutes ago)
VFR
Wind Visibility
200° at 10 knots 10 miles
Clouds
  • Clear skies
Temperature Dewpoint
33°C / 91°F 24°C / 75°F
Humidity Altimeter Pressure
59% 29.97" Hg 1014.9 hPa